X  Fechar Metar - Info de Aeroporto     LYNI Nis Airport
Temperatura
10°C Temperatura
8°C Ptº Orvalho
88% Humidade



Vento
1 M/S
3 MPH
5 KM/H
3 NÓS



310°
NO
Condições Atuais

Muito Nublado Muito Nublado
Pressão 1019.92 (hPa) - 30.12 (inHg)
Visibilidade 6.2 (milha) - 10 (km)
Aeroporto
Código-Aeropoto LYNI

Localização: Nis Airport
Distância: 63 (km)

Metar:
LYNI 040300Z 31003KT 270V350 9999 BKN030 10/08 Q1020 NOSIG

Hora: 04-10-2022 05:00 CEST